Weather History for Rochelle, IL

Change the Weather History Date:

Monday, September 23, 2013

  Actual Average (KRFD) Record (KRFD)
Temperature  
Mean Temperature 56 °F 61 °F  
Max Temperature 71 °F 73 °F 92 °F (1937)
Min Temperature 43 °F 49 °F 29 °F (1974)
Degree Days  
Heating Degree Days 8 6  
Month to date heating degree days 66  
Since 1 July heating degree days 80  
Cooling Degree Days 0 2  
Month to date cooling degree days 77  
Year to date cooling degree days 804  
Growing Degree Days 6 (Base 50)    
Moisture  
Dew Point 46 °F    
Average Humidity 73    
Maximum Humidity 95    
Minimum Humidity 43    
Precipitation  
Precipitation 0.03 in 0.11 in 0.66 in (1970)
Month to date precipitation 2.62  
Year to date precipitation 28.28  
Snow  
Snow 0.00 in 0.00 in 0.00 in ()
Month to date snowfall 0.0  
Since 1 July snowfall 0.0  
Since 1 September snowfall 0.0  
Snow Depth -    
Sea Level Pressure  
Sea Level Pressure 30.06 in    
Wind  
Wind Speed 2 mph (ESE)    
Max Wind Speed 8 mph    
Max Gust Speed -    
Visibility 10 miles    
Events      
T = Trace of Precipitation, MM = Missing Value Source: NWS Daily Summary

Daily Weather History Graph

Daily Weather History Graph

Search for Another Location

Airport:

Trip Planner

Search our weather history database for the weather conditions in past years. The results will help you decide how hot, cold, wet, or windy it might be!

Date:

Astronomy

Sep. 23, 2013 Rise Set
Actual Time 6:45 AM CDT 6:51 PM CDT
Civil Twilight 6:17 AM CDT 7:19 PM CDT
Nautical Twilight 5:44 AM CDT 7:51 PM CDT
Astronomical Twilight 5:11 AM CDT 8:24 PM CDT
Moon 9:19 PM CDT (9/23) 11:08 AM CDT (9/23)
Length of Visible Light 13h 01m
Length of Day
12h 06m
Waning Gibbous, 81% of the Moon is Illuminated
Sep 23
Waning Gibbous
Sep 26
Last Quarter
Oct 4
New
Oct 11
First Quarter
Oct 18
Full

Hourly Weather History & Observations

Time (CDT) Temp. Dew Point Humidity Pressure Visibility Wind Dir Wind Speed Gust Speed Precip Events Conditions
12:15 AM 48.2 °F 45.5 °F 90% 30.05 in 10.0 mi Calm Calm - N/A   Clear
12:35 AM 47.7 °F 45.1 °F 91% 30.06 in 10.0 mi Calm Calm - N/A   Clear
12:55 AM 47.3 °F 45.1 °F 92% 30.06 in 10.0 mi Calm Calm - N/A   Clear
1:15 AM 47.3 °F 45.0 °F 92% 30.06 in 10.0 mi Calm Calm - N/A   Clear
1:35 AM 47.1 °F 45.0 °F 92% 30.06 in 10.0 mi Calm Calm - N/A   Clear
1:55 AM 46.0 °F 43.9 °F 92% 30.07 in 10.0 mi Calm Calm - N/A   Clear
2:15 AM 45.9 °F 44.4 °F 95% 30.06 in 10.0 mi Calm Calm - N/A   Clear
2:35 AM 44.4 °F 42.6 °F 93% 30.06 in 10.0 mi Calm Calm - N/A   Clear
2:55 AM 44.1 °F 42.6 °F 95% 30.06 in 10.0 mi Calm Calm - N/A   Clear
3:15 AM 43.7 °F 42.4 °F 95% 30.06 in 10.0 mi Calm Calm - N/A   Clear
3:35 AM 45.0 °F 43.7 °F 95% 30.07 in 10.0 mi Calm Calm - N/A   Clear
3:55 AM 45.1 °F 43.7 °F 95% 30.07 in 7.0 mi Calm Calm - N/A   Clear
4:15 AM 45.0 °F 43.5 °F 95% 30.07 in 7.0 mi Calm Calm - N/A   Clear
4:35 AM 43.7 °F 42.1 °F 94% 30.07 in 7.0 mi Calm Calm - N/A   Clear
4:55 AM 45.0 °F 43.7 °F 95% 30.07 in 10.0 mi Calm Calm - N/A   Clear
5:15 AM 45.0 °F 43.2 °F 93% 30.08 in 10.0 mi Calm Calm - N/A   Clear
5:35 AM 45.7 °F 43.7 °F 93% 30.07 in 10.0 mi Calm Calm - N/A   Clear
5:55 AM 45.1 °F 42.8 °F 91% 30.08 in 10.0 mi Calm Calm - N/A   Clear
6:15 AM 44.8 °F 42.8 °F 93% 30.09 in 10.0 mi Calm Calm - N/A   Clear
6:35 AM 44.6 °F 42.3 °F 91% 30.09 in 10.0 mi Calm Calm - N/A   Clear
6:55 AM 44.1 °F 41.7 °F 91% 30.09 in 10.0 mi Calm Calm - N/A   Clear
7:15 AM 43.9 °F 41.9 °F 93% 30.09 in 10.0 mi Calm Calm - N/A   Clear
7:35 AM 45.7 °F 43.5 °F 92% 30.09 in 10.0 mi Calm Calm - N/A   Clear
7:55 AM 48.2 °F 44.6 °F 87% 30.09 in 10.0 mi Calm Calm - N/A   Clear
8:15 AM 50.2 °F 45.3 °F 83% 30.10 in 10.0 mi SE 3.5 mph - N/A   Clear
8:35 AM 51.8 °F 46.0 °F 81% 30.10 in 10.0 mi SE 5.8 mph - N/A   Clear
8:55 AM 52.9 °F 45.7 °F 77% 30.11 in 10.0 mi SE 6.9 mph - N/A   Clear
9:15 AM 54.5 °F 45.5 °F 72% 30.11 in 10.0 mi SE 6.9 mph - N/A   Clear
9:35 AM 56.3 °F 45.7 °F 68% 30.11 in 10.0 mi ESE 4.6 mph - N/A   Clear
9:55 AM 58.1 °F 45.9 °F 64% 30.12 in 10.0 mi ESE 8.1 mph - N/A   Clear
10:15 AM 59.4 °F 45.5 °F 60% 30.12 in 10.0 mi SE 6.9 mph - N/A   Clear
10:35 AM 60.6 °F 45.7 °F 58% 30.12 in 10.0 mi SSE 4.6 mph - N/A   Clear
10:55 AM 61.5 °F 46.0 °F 57% 30.12 in 10.0 mi SE 5.8 mph - N/A   Clear
11:15 AM 62.8 °F 46.8 °F 56% 30.11 in 10.0 mi East 5.8 mph - N/A   Clear
11:35 AM 64.2 °F 46.2 °F 52% 30.11 in 10.0 mi ESE 4.6 mph - N/A   Clear
11:55 AM 65.1 °F 47.1 °F 52% 30.10 in 10.0 mi East 4.6 mph - N/A   Clear
12:15 PM 66.0 °F 46.2 °F 49% 30.09 in 10.0 mi Calm Calm - N/A   Clear
12:35 PM 66.6 °F 46.9 °F 49% 30.09 in 10.0 mi East 4.6 mph - N/A   Clear
12:55 PM 67.1 °F 46.4 °F 47% 30.08 in 10.0 mi ESE 4.6 mph - N/A   Clear
1:15 PM 67.8 °F 47.8 °F 49% 30.08 in 10.0 mi East 5.8 mph - N/A   Clear
1:35 PM 68.5 °F 47.8 °F 48% 30.07 in 10.0 mi East 4.6 mph - N/A   Clear
1:55 PM 68.7 °F 47.3 °F 46% 30.06 in 10.0 mi East 8.1 mph - N/A   Clear
2:15 PM 68.9 °F 47.3 °F 46% 30.06 in 7.0 mi ESE 4.6 mph - N/A   Clear
2:35 PM 69.3 °F 46.8 °F 45% 30.05 in 10.0 mi SE 5.8 mph - N/A   Clear
2:55 PM 69.6 °F 48.2 °F 46% 30.05 in 10.0 mi East 6.9 mph - N/A   Clear
3:15 PM 70.3 °F 48.4 °F 46% 30.04 in 10.0 mi East 5.8 mph - N/A   Clear
3:35 PM 69.8 °F 47.1 °F 44% 30.04 in 10.0 mi ESE 4.6 mph - N/A   Clear
3:55 PM 70.0 °F 46.2 °F 43% 30.03 in 10.0 mi East 6.9 mph - N/A   Clear
4:15 PM 70.0 °F 46.2 °F 43% 30.03 in 10.0 mi SE 5.8 mph - N/A   Clear
4:35 PM 70.9 °F 47.1 °F 43% 30.03 in - East 6.9 mph - 0.03 in   Clear
4:55 PM 69.6 °F 46.0 °F 43% 30.03 in 10.0 mi ESE 6.9 mph - 0.03 in   Clear
5:15 PM 68.9 °F 45.7 °F 43% 30.03 in - SE 5.8 mph - N/A   Clear
5:35 PM 68.2 °F 46.4 °F 46% 30.03 in 10.0 mi SE 5.8 mph - N/A   Clear
5:55 PM 67.1 °F 46.8 °F 48% 30.03 in 10.0 mi ESE 5.8 mph - N/A   Clear
6:35 PM 62.2 °F 48.0 °F 60% 30.02 in 10.0 mi East 4.6 mph - N/A   Clear
6:55 PM 58.1 °F 49.1 °F 72% 30.03 in 10.0 mi East 5.8 mph - N/A   Clear
7:15 PM 56.7 °F 48.0 °F 73% 30.03 in 10.0 mi East 5.8 mph - N/A   Clear
7:35 PM 56.1 °F 47.1 °F 72% 30.03 in 10.0 mi East 5.8 mph - N/A   Clear
7:55 PM 56.5 °F 48.2 °F 74% 30.03 in 10.0 mi East 6.9 mph - N/A   Clear
8:15 PM 56.5 °F 48.6 °F 75% 30.03 in 10.0 mi East 8.1 mph - N/A   Clear
8:35 PM 55.9 °F 48.6 °F 76% 30.03 in 10.0 mi East 8.1 mph - N/A   Clear
8:55 PM 54.9 °F 48.2 °F 78% 30.04 in 10.0 mi East 8.1 mph - N/A   Clear
9:15 PM 54.5 °F 48.2 °F 79% 30.04 in 10.0 mi East 8.1 mph - N/A   Clear
9:35 PM 53.6 °F 48.2 °F 82% 30.04 in 10.0 mi East 6.9 mph - N/A   Clear
9:55 PM 52.9 °F 48.6 °F 85% 30.04 in 10.0 mi East 6.9 mph - N/A   Clear
10:15 PM 52.7 °F 48.7 °F 86% 30.04 in 10.0 mi East 6.9 mph - N/A   Clear
10:35 PM 52.2 °F 48.9 °F 89% 30.03 in 10.0 mi East 6.9 mph - N/A   Clear
10:55 PM 52.7 °F 49.3 °F 88% 30.03 in 10.0 mi East 8.1 mph - N/A   Clear
11:15 PM 52.3 °F 49.3 °F 89% 30.03 in 10.0 mi East 8.1 mph - N/A   Clear
11:35 PM 52.0 °F 49.3 °F 90% 30.03 in 10.0 mi East 5.8 mph - N/A   Clear
11:55 PM 51.3 °F 48.7 °F 91% 30.03 in 10.0 mi East 4.6 mph - N/A   Clear